createdAt,value
2018-08-07T00:05:43.306Z,27.8
2018-08-07T00:06:33.626Z,27.8
2018-08-07T00:07:23.707Z,27.8
2018-08-07T00:08:13.553Z,27.8
2018-08-07T00:09:03.343Z,27.8
2018-08-07T00:09:53.596Z,27.7
2018-08-07T00:10:43.448Z,27.7
2018-08-07T00:11:33.446Z,27.7
2018-08-07T00:12:23.490Z,27.7
2018-08-07T00:13:14.148Z,27.7
2018-08-07T00:14:04.215Z,27.7
2018-08-07T00:14:54.002Z,27.6
2018-08-07T00:15:44.250Z,27.6
2018-08-07T00:16:34.095Z,27.6
2018-08-07T00:17:24.151Z,27.6
2018-08-07T00:18:14.235Z,27.6
2018-08-07T00:19:04.541Z,27.6
2018-08-07T00:19:54.692Z,27.6
2018-08-07T00:20:44.733Z,27.6
2018-08-07T00:21:33.981Z,27.6
2018-08-07T00:22:24.353Z,27.6
2018-08-07T00:23:14.118Z,27.6
2018-08-07T00:24:04.415Z,27.6
2018-08-07T00:24:54.508Z,27.5
2018-08-07T00:25:44.804Z,27.5
2018-08-07T00:26:35.167Z,27.5
2018-08-07T00:27:24.971Z,27.5
2018-08-07T00:28:15.627Z,27.5
2018-08-07T00:29:05.090Z,27.5
2018-08-07T00:29:54.870Z,27.5
2018-08-07T00:30:45.186Z,27.5
2018-08-07T00:31:35.878Z,27.4
2018-08-07T00:32:25.580Z,27.4
2018-08-07T00:33:15.670Z,27.4
2018-08-07T00:34:06.035Z,27.4
2018-08-07T00:34:55.270Z,27.4
2018-08-07T00:35:46.200Z,27.4
2018-08-07T00:36:35.694Z,27.4
2018-08-07T00:37:25.753Z,27.4
2018-08-07T00:38:16.083Z,27.4
2018-08-07T00:39:06.417Z,27.4
2018-08-07T00:39:56.470Z,27.4
2018-08-07T00:40:46.322Z,27.4
2018-08-07T00:41:36.405Z,27.4
2018-08-07T00:42:25.224Z,27.4
2018-08-07T00:43:16.451Z,27.4
2018-08-07T00:44:06.274Z,27.4
2018-08-07T00:44:56.327Z,27.4
2018-08-07T00:45:46.126Z,27.4
2018-08-07T00:46:36.478Z,27.3
2018-08-07T00:47:26.205Z,27.4
2018-08-07T00:48:16.593Z,27.3
2018-08-07T00:49:06.036Z,27.3
2018-08-07T00:49:56.960Z,27.3
2018-08-07T00:50:46.758Z,27.3
2018-08-07T00:51:37.129Z,27.3
2018-08-07T00:52:26.568Z,27.3
2018-08-07T00:53:16.389Z,27.3
2018-08-07T00:54:07.015Z,27.3
2018-08-07T00:54:56.851Z,27.3
2018-08-07T00:55:46.853Z,27.3
2018-08-07T00:56:36.926Z,27.3
2018-08-07T00:57:27.003Z,27.3
2018-08-07T00:58:17.608Z,27.3
2018-08-07T00:59:07.102Z,27.3
2018-08-07T00:59:56.356Z,27.3
2018-08-07T01:00:47.514Z,27.3
2018-08-07T01:01:37.383Z,27.3
2018-08-07T01:02:27.075Z,27.3
2018-08-07T01:03:18.018Z,27.3
2018-08-07T01:04:07.805Z,27.3
2018-08-07T01:04:57.823Z,27.2
2018-08-07T01:05:47.037Z,27.3
2018-08-07T01:06:38.283Z,27.3
2018-08-07T01:07:28.721Z,27.3
2018-08-07T01:08:18.388Z,27.2
2018-08-07T01:09:08.433Z,27.2
2018-08-07T01:09:58.518Z,27.2
2018-08-07T01:10:48.575Z,27.2
2018-08-07T01:11:38.933Z,27.2
2018-08-07T01:12:28.610Z,27.2
2018-08-07T01:13:18.485Z,27.2
2018-08-07T01:14:09.119Z,27.2
2018-08-07T01:14:59.180Z,27.2
2018-08-07T01:15:48.982Z,27.2
2018-08-07T01:16:39.307Z,27.1
2018-08-07T01:17:29.379Z,27.1
2018-08-07T01:18:18.564Z,27.1
2018-08-07T01:19:08.937Z,27.2
2018-08-07T01:19:58.143Z,27.1
2018-08-07T01:20:49.365Z,27.1
2018-08-07T01:21:39.412Z,27.1
2018-08-07T01:22:29.762Z,27.1
2018-08-07T01:23:19.577Z,27.1
2018-08-07T01:24:09.342Z,27.1
2018-08-07T01:24:59.354Z,27.1
2018-08-07T01:25:49.176Z,27.1
2018-08-07T01:26:39.797Z,27.1
2018-08-07T01:27:30.172Z,27.1
2018-08-07T01:28:19.911Z,27.1
2018-08-07T01:29:09.687Z,27.1
2018-08-07T01:30:00.149Z,27.1
2018-08-07T01:30:49.924Z,27.1
2018-08-07T01:31:40.407Z,27.1
2018-08-07T01:32:30.253Z,27.1
2018-08-07T01:33:20.621Z,27.1
2018-08-07T01:34:10.359Z,27.1
2018-08-07T01:35:00.756Z,27.1
2018-08-07T01:35:50.493Z,27.1
2018-08-07T01:36:40.838Z,27.1
2018-08-07T01:37:30.891Z,27.1
2018-08-07T01:38:20.393Z,27.1
2018-08-07T01:39:10.742Z,27.1
2018-08-07T01:40:00.815Z,27.1
2018-08-07T01:40:50.888Z,27.1
2018-08-07T01:41:41.266Z,27.1
2018-08-07T01:42:30.767Z,27.1
2018-08-07T01:43:21.140Z,27
2018-08-07T01:44:10.599Z,27.1
2018-08-07T01:45:00.893Z,27
2018-08-07T01:45:51.264Z,27.1
2018-08-07T01:46:41.314Z,27
2018-08-07T01:47:31.111Z,27
2018-08-07T01:48:21.188Z,27
2018-08-07T01:49:11.801Z,27
2018-08-07T01:50:01.032Z,27.1
2018-08-07T01:50:51.616Z,27
2018-08-07T01:51:41.681Z,27
2018-08-07T01:52:31.179Z,27
2018-08-07T01:53:22.055Z,27
2018-08-07T01:54:12.179Z,27
2018-08-07T01:55:01.663Z,27
2018-08-07T01:55:51.504Z,27
2018-08-07T01:56:42.061Z,27
2018-08-07T01:57:32.420Z,27
2018-08-07T01:58:22.008Z,27
2018-08-07T01:59:11.773Z,27
2018-08-07T02:00:01.578Z,27
2018-08-07T02:00:51.966Z,27
2018-08-07T05:07:04.147Z,26.7
2018-08-07T05:07:53.829Z,26.8
2018-08-07T05:08:43.864Z,26.8
2018-08-07T05:09:34.175Z,26.8
2018-08-07T05:10:24.346Z,26.8
2018-08-07T05:11:14.615Z,26.8
2018-08-07T05:12:04.707Z,26.8
2018-08-07T05:12:54.440Z,26.8
2018-08-07T05:13:44.455Z,26.8
2018-08-07T05:14:34.512Z,26.8
2018-08-07T05:15:24.032Z,26.8
2018-08-07T05:16:14.983Z,26.8
2018-08-07T05:17:05.093Z,26.8
2018-08-07T05:17:54.801Z,26.8
2018-08-07T05:18:44.635Z,26.8
2018-08-07T05:19:35.004Z,26.8
2018-08-07T05:20:25.053Z,26.8
2018-08-07T05:21:15.065Z,26.8
2018-08-07T05:22:04.608Z,26.8
2018-08-07T05:22:54.903Z,26.8
2018-08-07T05:23:44.533Z,26.8
2018-08-07T05:24:35.322Z,26.8
2018-08-07T05:25:25.651Z,26.8
2018-08-07T05:26:15.181Z,26.8
2018-08-07T05:27:05.321Z,26.8
2018-08-07T05:27:54.753Z,26.8
2018-08-07T05:28:46.415Z,26.8
2018-08-07T05:29:36.016Z,26.8
2018-08-07T05:30:25.494Z,26.8
2018-08-07T05:31:15.349Z,26.8
2018-08-07T05:32:05.075Z,26.8
2018-08-07T05:32:56.243Z,26.8
2018-08-07T05:33:45.261Z,26.8
2018-08-07T05:34:36.364Z,26.8
2018-08-07T05:35:26.165Z,26.8
2018-08-07T05:36:15.686Z,26.7
2018-08-07T05:37:06.329Z,26.7
2018-08-07T05:37:56.648Z,26.7
2018-08-07T05:38:46.155Z,26.7
2018-08-07T05:39:36.405Z,26.7
2018-08-07T05:40:41.320Z,26.7
2018-08-07T05:41:15.820Z,26.7
2018-08-07T05:42:06.400Z,26.6
2018-08-07T05:42:57.265Z,26.6
2018-08-07T05:43:46.868Z,26.7
2018-08-07T05:44:36.356Z,30.9
2018-08-07T05:45:26.340Z,35.3
2018-08-07T05:46:16.991Z,36.8
2018-08-07T05:47:07.348Z,37.1
2018-08-07T05:47:57.099Z,37.1
2018-08-07T05:48:46.959Z,36.9
2018-08-07T05:49:37.514Z,36.8
2018-08-07T05:50:30.133Z,36.6
2018-08-07T05:51:22.609Z,36.3
2018-08-07T05:52:07.711Z,36
2018-08-07T05:52:57.481Z,35.8
2018-08-07T05:53:48.089Z,35.6
2018-08-07T05:54:37.893Z,35.3
2018-08-07T05:55:27.966Z,35.1
2018-08-07T05:56:17.508Z,34.8
2018-08-07T05:57:07.286Z,34.8
2018-08-07T05:57:58.429Z,38.2
2018-08-07T05:59:01.863Z,39.5
2018-08-07T05:59:38.316Z,40.1
2018-08-07T06:00:27.816Z,40.3
2018-08-07T06:01:17.605Z,40.2
2018-08-07T06:02:08.591Z,39.9
2018-08-07T06:02:58.528Z,39.6
2018-08-07T06:03:47.581Z,39.3
2018-08-07T06:04:38.556Z,38.9
2018-08-07T06:05:28.732Z,38.4
2018-08-07T06:06:18.258Z,38.1
2018-08-07T06:07:08.326Z,37.7
2018-08-07T06:07:59.226Z,37.4
2018-08-07T06:09:03.665Z,37.1
2018-08-07T06:09:37.711Z,36.7
2018-08-07T06:10:28.574Z,36.4
2018-08-07T06:11:18.929Z,36.1
2018-08-07T06:12:08.991Z,38.3
2018-08-07T06:12:59.302Z,39.6
2018-08-07T06:13:48.367Z,41
2018-08-07T06:14:39.013Z,41.9
2018-08-07T06:15:29.288Z,42.3
2018-08-07T06:16:18.538Z,42.4
2018-08-07T06:17:09.219Z,42.4
2018-08-07T06:17:59.202Z,42.6
2018-08-07T06:18:48.457Z,42.8
2018-08-07T06:19:39.850Z,42.9
2018-08-07T06:20:29.934Z,43.1
2018-08-07T06:21:19.972Z,43.3
2018-08-07T06:22:10.045Z,43.4
2018-08-07T06:23:00.056Z,43.5
2018-08-07T06:23:49.899Z,43.6
2018-08-07T06:24:40.453Z,43.8
2018-08-07T06:25:30.152Z,43.8
2018-08-07T06:26:20.054Z,43.9
2018-08-07T06:27:10.179Z,44.1
2018-08-07T06:27:59.712Z,44.2
2018-08-07T06:28:49.477Z,44.3
2018-08-07T06:29:40.080Z,44.4
2018-08-07T06:30:28.940Z,44.5
2018-08-07T06:31:20.272Z,44.6
2018-08-07T06:32:10.307Z,44.7
2018-08-07T06:32:59.695Z,44.8
2018-08-07T06:33:50.188Z,44.9
2018-08-07T06:34:40.571Z,45
2018-08-07T06:35:30.272Z,45.1
2018-08-07T06:36:19.518Z,45.2
2018-08-07T06:37:10.639Z,45.3
2018-08-07T06:38:00.972Z,45.4
2018-08-07T06:38:50.790Z,45.5
2018-08-07T06:39:41.476Z,45.6
2018-08-07T06:40:30.952Z,45.7
2018-08-07T06:41:21.284Z,45.8
2018-08-07T06:42:11.059Z,45.9
2018-08-07T06:43:02.492Z,46
2018-08-07T06:43:51.741Z,46.1
2018-08-07T06:44:41.815Z,46.1
2018-08-07T06:45:31.852Z,46.3
2018-08-07T06:46:21.641Z,46.4
2018-08-07T06:47:11.162Z,46.4
2018-08-07T06:48:02.416Z,46.5
2018-08-07T06:48:52.090Z,46.6
2018-08-07T06:49:41.900Z,46.8
2018-08-07T06:50:31.971Z,46.8
2018-08-07T06:51:21.686Z,46.9
2018-08-07T06:52:12.343Z,47
2018-08-07T06:53:02.222Z,47.1
2018-08-07T06:54:06.392Z,47.2
2018-08-07T06:54:41.721Z,47.3
2018-08-07T06:55:32.341Z,47.4
2018-08-07T06:56:22.154Z,47.4
2018-08-07T06:57:12.952Z,47.6
2018-08-07T06:58:02.832Z,47.6
2018-08-07T06:58:52.361Z,47.7
2018-08-07T06:59:42.955Z,47.8
2018-08-07T07:00:33.001Z,47.9
2018-08-07T07:01:23.064Z,48
2018-08-07T07:02:12.897Z,48.1
2018-08-07T07:03:03.308Z,48.2
2018-08-07T07:03:52.791Z,48.3
2018-08-07T07:04:42.827Z,48.4
2018-08-07T07:05:33.205Z,48.4
2018-08-07T07:06:23.893Z,48.6
2018-08-07T07:07:13.527Z,48.7
2018-08-07T07:08:02.529Z,48.8
2018-08-07T07:08:53.440Z,48.9
2018-08-07T07:09:43.128Z,49
2018-08-07T07:10:33.044Z,49.1
2018-08-07T07:11:23.634Z,49.2
2018-08-07T07:12:13.676Z,49.3
2018-08-07T07:13:03.752Z,49.4
2018-08-07T07:13:53.549Z,49.4
2018-08-07T07:14:42.996Z,49.6
2018-08-07T07:15:33.349Z,49.7
2018-08-07T07:16:24.261Z,49.8
2018-08-07T07:17:13.500Z,49.9
2018-08-07T07:18:03.846Z,50
2018-08-07T07:18:53.171Z,50.1
2018-08-07T07:19:43.011Z,50
2018-08-07T07:20:33.335Z,49.9
2018-08-07T07:21:24.121Z,49.8
2018-08-07T07:22:13.919Z,49.8
2018-08-07T07:23:04.015Z,49.9
2018-08-07T07:23:54.310Z,50.1
2018-08-07T07:24:44.449Z,50.2
2018-08-07T07:25:34.293Z,50.3
2018-08-07T07:26:24.560Z,50.4
2018-08-07T07:27:14.513Z,50.4
2018-08-07T07:28:04.600Z,50.6
2018-08-07T07:28:54.950Z,50.8
2018-08-07T07:29:44.826Z,50.9
2018-08-07T07:30:35.322Z,51
2018-08-07T07:31:24.630Z,51.2
2018-08-07T07:32:15.469Z,51.3
2018-08-07T07:33:05.515Z,51.4
2018-08-07T07:33:55.319Z,51.6
2018-08-07T07:34:46.630Z,51.8
2018-08-07T07:35:35.762Z,51.9
2018-08-07T07:36:25.576Z,52
2018-08-07T07:37:15.898Z,52.1
2018-08-07T07:38:05.952Z,52.3
2018-08-07T07:38:56.009Z,52.3
2018-08-07T07:39:45.531Z,52.4
2018-08-07T07:40:35.605Z,52.5
2018-08-07T07:41:25.732Z,52.6
2018-08-07T07:42:15.767Z,52.8
2018-08-07T07:43:05.784Z,52.9
2018-08-07T07:43:54.819Z,53
2018-08-07T07:44:46.244Z,53.1
2018-08-07T07:45:36.328Z,53.3
2018-08-07T07:46:26.329Z,53.4
2018-08-07T07:47:16.067Z,53.5
2018-08-07T07:48:06.161Z,53.7
2018-08-07T07:48:56.796Z,53.7
2018-08-07T07:49:46.850Z,53.8
2018-08-07T07:50:36.977Z,53.8
2018-08-07T07:51:26.415Z,53.8
2018-08-07T07:52:16.976Z,53.9
2018-08-07T07:53:21.514Z,54
2018-08-07T07:53:57.608Z,54.2
2018-08-07T07:54:46.968Z,54.3
2018-08-07T07:55:36.759Z,54.4
2018-08-07T07:56:27.353Z,54.5
2018-08-07T07:57:17.398Z,54.6
2018-08-07T07:58:07.658Z,54.8
2018-08-07T07:58:57.271Z,54.9
2018-08-07T07:59:47.024Z,54.9
2018-08-07T08:00:37.171Z,55.1
2018-08-07T08:01:27.749Z,55.2
2018-08-07T08:02:17.807Z,55.4
2018-08-07T08:03:07.904Z,55.5
2018-08-07T08:03:57.385Z,55.6
2018-08-07T08:04:47.760Z,55.7
2018-08-07T08:05:38.613Z,55.8
2018-08-07T08:06:27.835Z,55.9
2018-08-07T08:07:17.711Z,56.1
2018-08-07T08:08:07.729Z,56.1
2018-08-07T08:08:58.041Z,56.3
2018-08-07T08:09:48.359Z,56.4
2018-08-07T08:10:37.913Z,56.5
2018-08-07T08:11:27.993Z,56.6
2018-08-07T08:12:18.334Z,56.8
2018-08-07T08:13:08.674Z,56.9
2018-08-07T08:13:58.742Z,56.9
2018-08-07T08:14:48.522Z,57.1
2018-08-07T08:15:38.920Z,57.2
2018-08-07T08:16:28.922Z,57.3
2018-08-07T08:17:18.737Z,57.4
2018-08-07T08:18:07.935Z,57.5
2018-08-07T08:18:58.854Z,57.6
2018-08-07T08:20:38.732Z,57.8
2018-08-07T08:21:29.026Z,57.9
2018-08-07T08:22:19.383Z,58.1
2018-08-07T08:23:09.179Z,58.2
2018-08-07T08:23:59.250Z,58.3
2018-08-07T08:24:49.269Z,58.4
2018-08-07T08:25:39.658Z,58.5
2018-08-07T08:26:29.439Z,58.6
2018-08-07T08:27:19.291Z,58.8
2018-08-07T08:28:08.795Z,58.9
2018-08-07T08:29:00.707Z,58.9
2018-08-07T08:29:50.805Z,59.1
2018-08-07T08:30:38.921Z,59.2
2018-08-07T08:31:30.084Z,59.3
2018-08-07T08:32:19.967Z,59.4
2018-08-07T08:33:09.646Z,59.5
2018-08-07T08:34:00.267Z,59.7
2018-08-07T08:34:50.388Z,59.8
2018-08-07T08:35:41.070Z,59.6
2018-08-07T08:36:30.455Z,59.5
2018-08-07T08:37:20.212Z,59.4
2018-08-07T08:38:10.588Z,59.5
2018-08-07T08:39:00.700Z,59.6
2018-08-07T08:39:50.450Z,59.7
2018-08-07T08:40:39.786Z,59.8
2018-08-07T08:41:30.083Z,59.8
2018-08-07T08:42:20.966Z,59.9
2018-08-07T08:43:10.464Z,60
2018-08-07T08:44:00.509Z,60
2018-08-07T08:44:50.933Z,60.1
2018-08-07T08:45:40.938Z,60.1
2018-08-07T08:46:31.282Z,60.3
2018-08-07T08:47:21.316Z,60.4
2018-08-07T08:48:11.281Z,60.5
2018-08-07T08:49:00.920Z,60.6
2018-08-07T08:49:50.248Z,60.8
2018-08-07T08:50:40.766Z,60.9
2018-08-07T08:51:31.389Z,60.9
2018-08-07T08:52:21.727Z,61.1
2018-08-07T08:53:11.529Z,61.2
2018-08-07T08:54:01.722Z,61.3
2018-08-07T08:54:51.402Z,61.4
2018-08-07T08:55:41.220Z,61.5
2018-08-07T08:56:32.093Z,61.6
2018-08-07T08:57:22.145Z,61.7
2018-08-07T08:58:11.922Z,61.8
2018-08-07T08:59:01.781Z,61.9
2018-08-07T08:59:52.025Z,62
2018-08-07T09:00:41.269Z,62.1
2018-08-07T09:01:31.167Z,62.2
2018-08-07T09:02:22.524Z,62.3
2018-08-07T09:03:11.780Z,62.4
2018-08-07T09:04:02.396Z,62.5
2018-08-07T09:21:26.898Z,57.5
2018-08-07T09:22:17.827Z,57.8
2018-08-07T09:23:07.873Z,58.1
2018-08-07T09:23:57.334Z,58.3
2018-08-07T09:24:47.953Z,58.6
2018-08-07T09:25:40.699Z,58.9
2018-08-07T09:26:27.849Z,59.2
2018-08-07T09:27:17.583Z,59.4
2018-08-07T09:28:08.200Z,59.6
2018-08-07T09:28:58.066Z,59.8
2018-08-07T09:29:48.061Z,60.1
2018-08-07T09:30:37.897Z,60.3
2018-08-07T09:31:28.112Z,60.4
2018-08-07T09:32:18.301Z,60.7
2018-08-07T09:33:08.952Z,60.9
2018-08-07T09:33:58.411Z,61.1
2018-08-07T09:34:48.771Z,61.3
2018-08-07T09:35:38.259Z,61.4
2018-08-07T09:36:28.894Z,61.6
2018-08-07T09:37:18.669Z,61.7
2018-08-07T09:38:09.030Z,61.8
2018-08-07T09:38:59.086Z,62
2018-08-07T09:39:49.613Z,62.1
2018-08-07T09:40:39.001Z,62.3
2018-08-07T09:41:28.730Z,62.4
2018-08-07T09:42:19.352Z,62.5
2018-08-07T09:43:09.170Z,62.6
2018-08-07T09:43:59.263Z,62.8
2018-08-07T09:44:49.345Z,62.9
2018-08-07T09:45:39.350Z,63
2018-08-07T09:46:30.031Z,63.1
2018-08-07T09:47:18.991Z,63.3
2018-08-07T09:48:09.832Z,63.3
2018-08-07T09:48:59.845Z,63.4
2018-08-07T09:49:51.047Z,63.5
2018-08-07T09:50:39.471Z,63.6
2018-08-07T09:51:29.824Z,63.7
2018-08-07T09:52:20.633Z,63.8
2018-08-07T09:53:09.349Z,63.9
2018-08-07T09:54:00.238Z,64
2018-08-07T09:54:50.051Z,64.1
2018-08-07T09:55:39.833Z,64.1
2018-08-07T09:56:30.158Z,64.3
2018-08-07T09:57:20.201Z,64.3
2018-08-07T09:58:10.309Z,64.4
2018-08-07T09:59:00.079Z,64.5
2018-08-07T09:59:50.416Z,64.6
2018-08-07T10:00:40.261Z,64.7
2018-08-07T10:01:30.286Z,64.8
2018-08-07T10:02:20.904Z,64.8
2018-08-07T10:03:10.723Z,64.9
2018-08-07T10:04:00.461Z,64.9
2018-08-07T10:04:50.264Z,65
2018-08-07T10:05:41.645Z,65.1
2018-08-07T10:06:30.989Z,65.1
2018-08-07T10:07:21.278Z,65.2
2018-08-07T10:08:10.818Z,65.3
2018-08-07T10:09:00.584Z,65.3
2018-08-07T10:09:51.484Z,65.4
2018-08-07T10:10:41.304Z,65.5
2018-08-07T10:11:31.330Z,65.5
2018-08-07T10:12:21.776Z,65.6
2018-08-07T10:13:11.785Z,65.6
2018-08-07T10:14:01.247Z,65.7
2018-08-07T10:14:51.331Z,65.8
2018-08-07T10:15:41.657Z,65.8
2018-08-07T10:16:32.077Z,65.9
2018-08-07T10:17:21.873Z,65.9
2018-08-07T10:18:11.636Z,65.9
2018-08-07T10:19:02.217Z,66.1
2018-08-07T10:19:51.754Z,66.1
2018-08-07T10:20:42.362Z,66.2
2018-08-07T10:21:32.125Z,66.2
2018-08-07T10:22:21.952Z,66.3
2018-08-07T10:23:12.983Z,66.3
2018-08-07T10:24:02.302Z,66.4
2018-08-07T10:24:52.351Z,66.4
2018-08-07T10:25:42.721Z,66.5
2018-08-07T10:26:32.753Z,66.6
2018-08-07T10:27:23.088Z,66.6
2018-08-07T10:28:12.406Z,66.7
2018-08-07T10:29:02.682Z,66.7
2018-08-07T10:29:52.817Z,66.8
2018-08-07T10:30:43.096Z,66.9
2018-08-07T10:31:33.409Z,66.9
2018-08-07T10:32:22.459Z,66.9
2018-08-07T10:33:12.583Z,67
2018-08-07T10:34:03.396Z,67
2018-08-07T10:34:53.545Z,67.1
2018-08-07T10:35:43.216Z,67.2
2018-08-07T10:36:33.045Z,67.2
2018-08-07T10:37:23.346Z,67.3
2018-08-07T10:38:13.450Z,67.3
2018-08-07T10:39:03.216Z,67.4
2018-08-07T10:39:53.646Z,67.4
2018-08-07T10:40:45.329Z,67.5
2018-08-07T10:41:33.442Z,67.6
2018-08-07T10:42:23.506Z,67.6
2018-08-07T10:43:16.107Z,67.6
2018-08-07T10:44:04.266Z,67.7
2018-08-07T10:44:53.425Z,67.8
2018-08-07T10:45:44.009Z,67.8
2018-08-07T10:46:34.932Z,67.8
2018-08-07T10:47:23.858Z,67.9
2018-08-07T10:48:14.525Z,67.9
2018-08-07T10:49:04.025Z,68
2018-08-07T10:49:54.115Z,68.1
2018-08-07T10:50:44.133Z,68.1
2018-08-07T10:51:34.194Z,68.2
2018-08-07T10:52:25.698Z,68.2
2018-08-07T10:53:14.052Z,68.3
2018-08-07T10:54:04.959Z,68.3
2018-08-07T10:54:55.003Z,68.4
2018-08-07T10:55:44.263Z,68.4
2018-08-07T10:56:36.343Z,68.4
2018-08-07T10:57:25.000Z,68.5
2018-08-07T10:58:15.551Z,68.5
2018-08-07T10:59:05.491Z,68.6
2018-08-07T10:59:54.594Z,68.6
2018-08-07T11:00:44.599Z,68.8
2018-08-07T11:01:35.303Z,68.8
2018-08-07T11:02:25.588Z,68.8
2018-08-07T11:03:15.102Z,68.8
2018-08-07T11:04:05.514Z,68.8
2018-08-07T11:04:55.787Z,68.9
2018-08-07T11:05:46.705Z,68.9
2018-08-07T11:06:35.983Z,69
2018-08-07T11:07:25.701Z,69
2018-08-07T11:08:16.022Z,69.1
2018-08-07T11:09:05.574Z,69.1
2018-08-07T11:09:56.239Z,69.2
2018-08-07T11:10:45.714Z,69.2
2018-08-07T11:11:36.318Z,69.3
2018-08-07T11:12:26.380Z,69.3
2018-08-07T11:13:16.481Z,69.4
2018-08-07T11:14:05.952Z,69.4
2018-08-07T11:14:56.593Z,69.4
2018-08-07T11:15:46.375Z,69.5
2018-08-07T11:16:36.427Z,69.5
2018-08-07T11:17:26.530Z,69.6
2018-08-07T11:18:16.031Z,69.6
2018-08-07T11:19:06.374Z,69.6
2018-08-07T11:19:56.722Z,69.7
2018-08-07T11:20:46.531Z,69.8
2018-08-07T11:21:36.614Z,69.8
2018-08-07T11:22:26.885Z,69.8
2018-08-07T11:23:16.977Z,69.8
2018-08-07T11:24:07.023Z,69.9
2018-08-07T11:24:57.222Z,69.9
2018-08-07T11:25:47.187Z,70
2018-08-07T11:26:37.518Z,70.1
2018-08-07T11:27:27.334Z,70.1
2018-08-07T11:28:16.830Z,70.1
2018-08-07T11:29:07.444Z,70.1
2018-08-07T11:29:58.700Z,70.2
2018-08-07T11:30:47.289Z,70.3
2018-08-07T11:31:37.644Z,70.2
2018-08-07T11:32:27.708Z,70.3
2018-08-07T11:33:17.483Z,70.3
2018-08-07T11:34:08.121Z,70.3
2018-08-07T11:34:57.923Z,70.3
2018-08-07T11:35:47.992Z,70.4
2018-08-07T11:36:38.000Z,70.4
2018-08-07T11:37:27.311Z,70.4
2018-08-07T11:38:18.263Z,70.4
2018-08-07T11:39:08.308Z,70.4
2018-08-07T11:39:58.372Z,70.5
2018-08-07T11:40:48.374Z,70.6
2018-08-07T11:41:38.157Z,70.6
2018-08-07T11:42:28.182Z,70.6
2018-08-07T11:43:18.399Z,70.7
2018-08-07T11:44:08.693Z,70.7
2018-08-07T11:44:58.715Z,70.8
2018-08-07T11:45:49.053Z,70.8
2018-08-07T11:46:38.519Z,70.8
2018-08-07T11:47:28.582Z,70.8
2018-08-07T11:48:19.375Z,70.9
2018-08-07T11:49:09.221Z,70.9
2018-08-07T11:49:59.296Z,70.9
2018-08-07T11:50:49.184Z,70.9
2018-08-07T11:51:39.514Z,71
2018-08-07T11:52:29.834Z,71
2018-08-07T11:53:19.703Z,71.1
2018-08-07T11:54:09.553Z,71.1
2018-08-07T11:54:59.450Z,71.1
2018-08-07T11:55:49.791Z,71.1
2018-08-07T11:56:39.586Z,71.1
2018-08-07T11:57:29.113Z,71.2
2018-08-07T11:58:19.840Z,71.2
2018-08-07T11:59:09.934Z,71.3
2018-08-07T11:59:59.641Z,71.3
2018-08-07T12:00:49.916Z,71.3
2018-08-07T12:01:40.241Z,71.4
2018-08-07T12:02:29.725Z,71.4
2018-08-07T12:03:20.101Z,71.4
2018-08-07T12:04:10.264Z,71.4
2018-08-07T12:05:00.497Z,71.4
2018-08-07T12:05:50.602Z,71.4
2018-08-07T12:06:40.632Z,71.4
2018-08-07T12:07:30.740Z,71.3
2018-08-07T12:08:19.781Z,71.1
2018-08-07T12:09:10.007Z,70.9
2018-08-07T12:10:00.939Z,70.6
2018-08-07T12:10:50.695Z,70.5
2018-08-07T12:11:41.009Z,70.4
2018-08-07T12:12:31.090Z,70.3
2018-08-07T12:13:20.056Z,70.1
2018-08-07T12:14:11.008Z,70
2018-08-07T12:15:01.034Z,69.9
2018-08-07T12:15:50.290Z,69.9
2018-08-07T12:16:41.164Z,69.9
2018-08-07T12:17:31.467Z,69.9
2018-08-07T12:18:21.519Z,70
2018-08-07T12:19:11.042Z,70.2
2018-08-07T12:20:01.396Z,70.3
2018-08-07T12:20:51.447Z,70.1
2018-08-07T12:21:42.176Z,69.9
2018-08-07T12:22:31.902Z,69.8
2018-08-07T12:23:21.632Z,69.6
2018-08-07T12:24:11.526Z,69.6
2018-08-07T12:25:02.046Z,69.5
2018-08-07T12:25:51.884Z,69.4
2018-08-07T12:26:41.883Z,69.3
2018-08-07T12:27:32.247Z,69.3
2018-08-07T12:28:22.325Z,69.3
2018-08-07T12:29:12.096Z,69.4
2018-08-07T12:30:02.200Z,69.7
2018-08-07T12:30:51.713Z,69.9
2018-08-07T12:32:32.141Z,69.9
2018-08-07T12:33:22.453Z,69.9
2018-08-07T12:34:12.816Z,70.1
2018-08-07T12:35:03.188Z,70.1
2018-08-07T12:35:52.449Z,70.1
2018-08-07T12:36:42.441Z,70.1
2018-08-07T12:37:32.511Z,70.1
2018-08-07T12:38:22.595Z,70.3
2018-08-07T12:39:13.178Z,70.3
2018-08-07T12:40:02.993Z,70.2
2018-08-07T12:40:51.952Z,70.1
2018-08-07T12:41:43.411Z,69.9
2018-08-07T12:42:33.227Z,69.8
2018-08-07T12:43:23.323Z,69.6
2018-08-07T12:44:12.788Z,69.5
2018-08-07T12:45:03.403Z,69.4
2018-08-07T12:45:52.915Z,69.4
2018-08-07T12:46:44.746Z,69.3
2018-08-07T12:47:33.838Z,69.1
2018-08-07T12:48:23.887Z,69
2018-08-07T12:49:13.671Z,68.9
2018-08-07T12:50:03.759Z,68.8
2018-08-07T12:50:53.901Z,68.7
2018-08-07T12:51:44.588Z,68.6
2018-08-07T12:52:34.247Z,68.6
2018-08-07T12:53:25.430Z,68.5
2018-08-07T12:54:14.347Z,68.4
2018-08-07T12:55:03.954Z,68.3
2018-08-07T12:55:54.475Z,68.3
2018-08-07T12:56:44.258Z,68.2
2018-08-07T12:57:34.643Z,68.1
2018-08-07T12:58:24.437Z,68
2018-08-07T12:59:13.936Z,67.9
2018-08-07T13:00:04.596Z,67.8
2018-08-07T13:00:54.378Z,67.7
2018-08-07T13:01:44.977Z,67.6
2018-08-07T13:02:34.238Z,67.6
2018-08-07T13:03:24.829Z,67.4
2018-08-07T13:04:15.129Z,67.4
2018-08-07T13:05:04.775Z,67.3
2018-08-07T13:05:54.999Z,67.2
2018-08-07T13:06:45.455Z,67.1
2018-08-07T13:07:35.468Z,66.9
2018-08-07T13:08:24.388Z,66.8
2018-08-07T13:09:14.990Z,66.7
2018-08-07T13:10:04.796Z,66.6
2018-08-07T13:10:55.683Z,66.5
2018-08-07T13:11:45.785Z,66.4
2018-08-07T13:12:35.824Z,66.3
2018-08-07T13:13:25.586Z,66.2
2018-08-07T13:14:15.971Z,66.1
2018-08-07T13:15:05.739Z,65.9
2018-08-07T13:15:55.824Z,65.8
2018-08-07T13:16:45.393Z,65.7
2018-08-07T13:17:36.488Z,65.6
2018-08-07T13:18:25.706Z,65.5
2018-08-07T13:19:16.356Z,65.4
2018-08-07T13:20:06.136Z,65.3
2018-08-07T13:20:55.657Z,65.1
2018-08-07T13:21:46.535Z,65
2018-08-07T13:22:36.632Z,64.9
2018-08-07T13:23:25.873Z,64.8
2018-08-07T13:24:15.936Z,64.7
2018-08-07T13:25:05.993Z,64.6
2018-08-07T13:25:57.619Z,64.5
2018-08-07T13:26:46.936Z,64.4
2018-08-07T13:27:36.448Z,64.3
2018-08-07T13:28:27.113Z,64.1
2018-08-07T13:29:16.248Z,64.1
2018-08-07T13:30:06.615Z,63.9
2018-08-07T13:30:56.428Z,63.8
2018-08-07T13:31:47.266Z,63.8
2018-08-07T13:32:37.106Z,63.7
2018-08-07T13:33:27.334Z,63.6
2018-08-07T13:34:17.548Z,63.4
2018-08-07T13:35:07.322Z,63.4
2018-08-07T13:35:56.817Z,63.3
2018-08-07T13:36:46.783Z,63.3
2018-08-07T13:37:37.607Z,63.1
2018-08-07T13:38:27.698Z,63.1
2018-08-07T13:39:17.223Z,63
2018-08-07T13:40:07.511Z,62.9
2018-08-07T13:40:58.169Z,62.8
2018-08-07T13:41:47.317Z,62.8
2018-08-07T13:42:37.935Z,62.6
2018-08-07T13:43:27.694Z,62.6
2018-08-07T13:44:18.315Z,62.5
2018-08-07T13:45:08.352Z,62.4
2018-08-07T13:45:58.464Z,62.3
2018-08-07T13:46:48.510Z,62.1
2018-08-07T13:47:38.521Z,61.8
2018-08-07T13:48:28.665Z,61.3
2018-08-07T13:49:18.397Z,60.9
2018-08-07T13:50:08.730Z,60.3
2018-08-07T13:50:58.783Z,59.8
2018-08-07T13:51:48.313Z,59.3
2018-08-07T13:52:38.929Z,58.8
2018-08-07T13:53:29.003Z,58.4
2018-08-07T13:54:19.055Z,57.9
2018-08-07T13:55:08.852Z,57.4
2018-08-07T13:56:00.532Z,56.9
2018-08-07T13:56:49.030Z,56.5
2018-08-07T13:57:38.835Z,56.1
2018-08-07T13:58:29.175Z,55.8
2018-08-07T13:59:18.912Z,55.4
2018-08-07T14:00:09.284Z,55
2018-08-07T14:00:59.344Z,54.6
2018-08-07T14:01:48.584Z,54.3
2018-08-07T14:02:39.177Z,54
2018-08-07T14:03:29.713Z,53.7
2018-08-07T14:04:18.781Z,53.4
2018-08-07T14:05:09.408Z,53.1
2018-08-07T14:05:59.774Z,52.9
2018-08-07T14:06:49.307Z,52.6
2018-08-07T14:08:30.209Z,52.2
2018-08-07T14:10:10.382Z,51.8
2018-08-07T14:10:59.593Z,51.6
2018-08-07T14:11:49.906Z,51.4
2018-08-07T14:12:39.831Z,51.1
2018-08-07T14:13:30.315Z,51
2018-08-07T14:14:20.108Z,50.9
2018-08-07T14:15:10.168Z,50.6
2018-08-07T14:16:00.263Z,50.5
2018-08-07T14:16:50.095Z,50.4
2018-08-07T14:17:40.910Z,50.2
2018-08-07T14:18:30.981Z,50
2018-08-07T14:19:20.608Z,49.9
2018-08-07T14:20:10.821Z,49.8
2018-08-07T14:21:00.347Z,49.6
2018-08-07T14:21:50.687Z,49.5
2018-08-07T14:22:41.029Z,49.3
2018-08-07T14:23:31.412Z,49.2
2018-08-07T14:24:20.917Z,49.1
2018-08-07T14:25:10.469Z,48.9
2018-08-07T14:26:00.156Z,48.8
2018-08-07T14:26:51.116Z,48.7
2018-08-07T14:27:40.976Z,48.6
2018-08-07T14:28:31.615Z,48.5
2018-08-07T14:29:21.120Z,48.4
2018-08-07T14:30:11.067Z,48.3
2018-08-07T14:31:01.396Z,48.1
2018-08-07T14:31:51.526Z,48.1
2018-08-07T14:32:41.822Z,47.9
2018-08-07T14:33:31.047Z,47.8
2018-08-07T14:34:21.926Z,47.7
2018-08-07T14:35:11.460Z,47.6
2018-08-07T14:36:01.274Z,47.5
2018-08-07T14:36:53.569Z,47.4
2018-08-07T14:37:42.237Z,47.3
2018-08-07T14:38:32.541Z,47.3
2018-08-07T14:39:22.377Z,47.1
2018-08-07T14:40:12.454Z,47.1